createdAt,value
2022-07-29T00:00:49.342Z,4.68
2022-07-29T00:03:36.446Z,4.80
2022-07-29T00:09:14.599Z,4.78
2022-07-29T00:12:02.725Z,4.70
2022-07-29T00:14:50.468Z,4.90
2022-07-29T00:17:37.785Z,4.90
2022-07-29T00:20:25.115Z,4.57
2022-07-29T00:23:13.658Z,5.10
2022-07-29T00:26:00.962Z,5.03
2022-07-29T00:28:48.109Z,5.63
2022-07-29T00:31:35.426Z,6.38
2022-07-29T00:34:41.196Z,5.70
2022-07-29T00:37:28.379Z,5.80
2022-07-29T00:40:15.576Z,6.15
2022-07-29T00:43:03.080Z,6.45
2022-07-29T00:45:50.197Z,6.82
2022-07-29T00:48:37.480Z,6.20
2022-07-29T00:51:27.082Z,6.35
2022-07-29T00:54:14.566Z,6.70
2022-07-29T00:57:02.273Z,6.50
2022-07-29T00:59:49.551Z,6.20
2022-07-29T01:02:36.994Z,6.90
2022-07-29T01:05:50.270Z,6.22
2022-07-29T01:08:34.255Z,6.18
2022-07-29T01:11:22.118Z,5.80
2022-07-29T01:14:10.681Z,6.20
2022-07-29T01:17:39.082Z,5.78
2022-07-29T01:20:47.641Z,5.82
2022-07-29T01:24:08.405Z,5.60
2022-07-29T01:26:59.866Z,5.93
2022-07-29T01:29:54.906Z,6.55
2022-07-29T01:32:45.467Z,6.22
2022-07-29T01:35:39.232Z,6.37
2022-07-29T01:38:29.284Z,6.47
2022-07-29T01:41:20.265Z,6.70
2022-07-29T01:44:23.590Z,6.72
2022-07-29T01:47:15.014Z,6.30
2022-07-29T01:50:06.896Z,6.90
2022-07-29T01:52:58.140Z,6.82
2022-07-29T01:55:48.433Z,7.53
2022-07-29T01:58:37.630Z,6.57
2022-07-29T02:01:26.100Z,6.95
2022-07-29T02:04:29.002Z,8.02
2022-07-29T02:07:20.317Z,6.70
2022-07-29T02:10:09.444Z,8.32
2022-07-29T02:12:59.088Z,7.07
2022-07-29T02:15:47.349Z,7.35
2022-07-29T02:18:36.857Z,8.07
2022-07-29T02:21:26.794Z,8.45
2022-07-29T02:24:15.472Z,7.88
2022-07-29T02:27:05.216Z,6.95
2022-07-29T02:29:54.177Z,6.43
2022-07-29T02:32:44.382Z,7.53
2022-07-29T02:35:34.611Z,6.82
2022-07-29T02:38:43.194Z,6.95
2022-07-29T02:41:36.465Z,7.50
2022-07-29T02:44:29.028Z,7.68
2022-07-29T02:47:41.448Z,7.60
2022-07-29T02:50:35.660Z,7.35
2022-07-29T02:53:27.480Z,7.63
2022-07-29T02:56:17.481Z,6.72
2022-07-29T02:59:10.078Z,7.07
2022-07-29T03:02:00.105Z,7.50
2022-07-29T03:04:50.183Z,7.77
2022-07-29T03:07:38.792Z,7.18
2022-07-29T03:10:27.285Z,7.68
2022-07-29T03:13:15.578Z,6.32
2022-07-29T03:16:03.825Z,7.45
2022-07-29T03:18:51.701Z,7.90
2022-07-29T03:21:38.913Z,7.80
2022-07-29T03:24:32.935Z,8.05
2022-07-29T03:27:20.259Z,7.70
2022-07-29T03:30:08.867Z,8.18
2022-07-29T03:32:56.670Z,7.80
2022-07-29T03:35:46.023Z,8.52
2022-07-29T03:38:36.782Z,8.48
2022-07-29T03:41:25.530Z,8.50
2022-07-29T03:44:15.010Z,8.70
2022-07-29T03:47:03.182Z,9.07
2022-07-29T03:49:53.194Z,7.90
2022-07-29T03:52:41.368Z,8.30
2022-07-29T03:55:37.532Z,8.07
2022-07-29T03:58:27.231Z,8.82
2022-07-29T04:01:15.514Z,9.05
2022-07-29T04:04:03.240Z,9.48
2022-07-29T04:06:50.460Z,9.07
2022-07-29T04:09:37.668Z,9.52
2022-07-29T04:12:24.839Z,9.35
2022-07-29T04:15:12.911Z,8.93
2022-07-29T04:18:00.457Z,8.25
2022-07-29T04:20:47.747Z,8.70
2022-07-29T04:23:34.928Z,7.93
2022-07-29T04:26:22.357Z,7.93
2022-07-29T04:29:09.935Z,7.72
2022-07-29T04:31:57.101Z,8.05
2022-07-29T04:34:44.226Z,7.68
2022-07-29T04:37:31.411Z,7.70
2022-07-29T04:40:18.737Z,7.75
2022-07-29T04:43:06.164Z,6.55
2022-07-29T04:45:53.490Z,6.22
2022-07-29T04:48:40.668Z,6.35
2022-07-29T04:51:27.825Z,6.00
2022-07-29T04:54:15.244Z,5.72
2022-07-29T04:57:02.673Z,5.22
2022-07-29T04:59:50.091Z,5.07
2022-07-29T05:02:37.318Z,4.70
2022-07-29T05:05:24.524Z,4.88
2022-07-29T05:08:11.789Z,4.57
2022-07-29T05:11:11.779Z,4.85
2022-07-29T05:13:59.987Z,4.65
2022-07-29T05:16:47.274Z,4.43
2022-07-29T05:19:34.374Z,4.80
2022-07-29T05:22:26.772Z,4.30
2022-07-29T05:25:13.935Z,4.25
2022-07-29T05:28:01.030Z,4.10
2022-07-29T05:30:49.382Z,4.50
2022-07-29T05:33:37.298Z,4.47
2022-07-29T05:36:24.590Z,4.25
2022-07-29T05:39:12.179Z,4.20
2022-07-29T05:41:59.566Z,4.03
2022-07-29T05:44:46.742Z,4.10
2022-07-29T05:47:33.917Z,3.88
2022-07-29T05:50:21.148Z,3.53
2022-07-29T05:53:19.566Z,3.60
2022-07-29T05:56:08.481Z,3.30
2022-07-29T05:58:55.646Z,3.28
2022-07-29T06:01:42.980Z,3.15
2022-07-29T06:04:30.297Z,3.20
2022-07-29T06:07:17.715Z,2.67
2022-07-29T06:10:05.606Z,2.95
2022-07-29T06:12:52.790Z,2.92
2022-07-29T06:15:40.195Z,3.05
2022-07-29T06:18:27.803Z,3.03
2022-07-29T06:21:14.939Z,2.50
2022-07-29T06:24:02.509Z,2.50
2022-07-29T06:26:49.711Z,2.60
2022-07-29T06:29:37.197Z,2.47
2022-07-29T06:32:27.524Z,2.45
2022-07-29T06:38:30.164Z,2.50
2022-07-29T06:41:19.369Z,2.25
2022-07-29T06:44:06.621Z,2.40
2022-07-29T06:46:55.722Z,2.42
2022-07-29T06:49:42.895Z,2.30
2022-07-29T06:52:30.344Z,2.30
2022-07-29T06:55:24.711Z,2.50
2022-07-29T06:58:12.855Z,2.30
2022-07-29T07:01:03.780Z,2.10
2022-07-29T07:03:50.968Z,2.22
2022-07-29T07:06:38.778Z,2.30
2022-07-29T07:09:26.247Z,2.40
2022-07-29T07:12:27.428Z,2.05
2022-07-29T07:15:14.667Z,2.30
2022-07-29T07:18:01.904Z,2.35
2022-07-29T07:20:49.773Z,2.28
2022-07-29T07:23:38.392Z,2.00
2022-07-29T07:26:26.300Z,1.88
2022-07-29T07:29:14.228Z,2.20
2022-07-29T07:32:01.624Z,2.50
2022-07-29T07:34:48.898Z,2.50
2022-07-29T07:37:36.658Z,2.30
2022-07-29T07:40:24.323Z,2.20
2022-07-29T07:43:11.609Z,2.20
2022-07-29T07:45:58.961Z,2.45
2022-07-29T07:48:46.240Z,2.42
2022-07-29T07:51:34.201Z,2.60
2022-07-29T07:54:21.534Z,2.40
2022-07-29T07:57:08.651Z,2.70
2022-07-29T07:59:55.817Z,2.58
2022-07-29T08:02:46.428Z,2.55
2022-07-29T08:05:33.858Z,2.45
2022-07-29T08:08:22.668Z,2.80
2022-07-29T08:11:10.107Z,2.53
2022-07-29T08:13:57.435Z,2.42
2022-07-29T08:16:44.856Z,2.50
2022-07-29T08:19:32.390Z,2.55
2022-07-29T08:22:19.583Z,2.63
2022-07-29T08:25:07.006Z,2.30
2022-07-29T08:27:54.140Z,2.40
2022-07-29T08:30:41.427Z,2.85
2022-07-29T08:33:28.572Z,2.50
2022-07-29T08:36:16.680Z,2.42
2022-07-29T08:39:04.169Z,2.70
2022-07-29T08:41:56.774Z,2.63
2022-07-29T08:44:44.990Z,2.80
2022-07-29T08:47:32.240Z,2.85
2022-07-29T08:50:19.421Z,2.78
2022-07-29T08:53:18.430Z,2.85
2022-07-29T08:56:06.344Z,2.50
2022-07-29T08:58:53.831Z,2.45
2022-07-29T09:01:51.727Z,2.65
2022-07-29T09:04:39.970Z,2.47
2022-07-29T09:07:27.344Z,2.63
2022-07-29T09:10:22.209Z,2.60
2022-07-29T09:13:09.591Z,2.40
2022-07-29T09:15:56.739Z,2.50
2022-07-29T09:18:46.601Z,2.33
2022-07-29T09:21:59.435Z,2.55
2022-07-29T09:24:48.712Z,2.58
2022-07-29T09:27:36.581Z,2.43
2022-07-29T09:30:25.587Z,2.25
2022-07-29T09:33:19.548Z,2.50
2022-07-29T09:36:08.757Z,2.40
2022-07-29T09:39:01.118Z,2.45
2022-07-29T09:41:55.183Z,2.50
2022-07-29T09:44:49.237Z,2.28
2022-07-29T09:47:50.279Z,2.60
2022-07-29T09:50:39.102Z,2.80
2022-07-29T09:53:38.018Z,2.60
2022-07-29T09:56:45.531Z,2.80
2022-07-29T09:59:32.960Z,2.85
2022-07-29T10:02:23.641Z,3.38
2022-07-29T10:05:24.472Z,3.15
2022-07-29T10:11:18.010Z,3.08
2022-07-29T10:14:05.796Z,3.28
2022-07-29T10:16:53.197Z,3.40
2022-07-29T10:19:40.524Z,2.90
2022-07-29T10:22:51.943Z,3.47
2022-07-29T10:25:35.101Z,3.15
2022-07-29T10:28:22.285Z,3.13
2022-07-29T10:31:16.651Z,3.38
2022-07-29T10:34:35.640Z,3.35
2022-07-29T10:37:36.397Z,3.08
2022-07-29T10:40:51.776Z,3.20
2022-07-29T10:43:44.602Z,3.38
2022-07-29T10:46:39.120Z,3.00
2022-07-29T10:49:31.124Z,3.15
2022-07-29T10:52:20.718Z,3.30
2022-07-29T10:55:37.442Z,3.20
2022-07-29T10:58:25.229Z,3.08
2022-07-29T11:01:37.210Z,3.50
2022-07-29T11:04:44.346Z,3.20
2022-07-29T11:07:45.796Z,3.33
2022-07-29T11:10:33.598Z,3.75
2022-07-29T11:13:51.421Z,3.67
2022-07-29T11:16:59.586Z,3.58
2022-07-29T11:19:52.198Z,3.50
2022-07-29T11:22:43.057Z,3.35
2022-07-29T11:25:43.024Z,3.60
2022-07-29T11:28:49.639Z,3.50
2022-07-29T11:31:43.752Z,3.60
2022-07-29T11:34:37.970Z,4.00
2022-07-29T11:37:28.165Z,3.63
2022-07-29T11:40:17.117Z,3.92
2022-07-29T11:43:07.386Z,3.53
2022-07-29T11:45:54.682Z,4.00
2022-07-29T11:48:45.740Z,3.97
2022-07-29T11:51:33.500Z,3.92
2022-07-29T11:54:33.006Z,4.00
2022-07-29T11:57:36.170Z,3.60
2022-07-29T12:00:28.226Z,3.42
2022-07-29T12:06:35.367Z,3.53
2022-07-29T12:09:24.939Z,3.25
2022-07-29T12:12:12.105Z,3.80
2022-07-29T12:14:59.478Z,3.42
2022-07-29T12:17:47.964Z,3.85
2022-07-29T12:20:35.887Z,3.90
2022-07-29T12:23:24.214Z,3.55
2022-07-29T12:26:21.895Z,3.70
2022-07-29T12:29:20.312Z,3.50
2022-07-29T12:32:21.240Z,3.40
2022-07-29T12:35:15.460Z,3.70
2022-07-29T12:38:11.056Z,3.65
2022-07-29T12:40:59.330Z,3.90
2022-07-29T12:43:54.456Z,3.53
2022-07-29T12:46:42.051Z,3.90
2022-07-29T12:49:29.497Z,3.60
2022-07-29T12:52:34.541Z,3.40
2022-07-29T12:55:45.224Z,3.55
2022-07-29T12:58:34.128Z,3.58
2022-07-29T13:01:22.095Z,3.50
2022-07-29T13:04:09.686Z,3.33
2022-07-29T13:07:06.670Z,3.45
2022-07-29T13:09:54.178Z,3.70
2022-07-29T13:13:11.242Z,3.63
2022-07-29T13:16:08.926Z,3.45
2022-07-29T13:19:07.356Z,3.33
2022-07-29T13:21:54.576Z,3.47
2022-07-29T13:24:56.813Z,3.95
2022-07-29T13:27:46.712Z,3.70
2022-07-29T13:30:34.501Z,3.83
2022-07-29T13:33:21.613Z,4.03
2022-07-29T13:36:08.909Z,4.00
2022-07-29T13:38:56.095Z,3.70
2022-07-29T13:41:43.533Z,4.10
2022-07-29T13:44:31.122Z,3.85
2022-07-29T13:47:22.047Z,3.95
2022-07-29T13:50:11.271Z,4.60
2022-07-29T13:52:58.611Z,3.42
2022-07-29T13:55:45.826Z,3.75
2022-07-29T13:58:36.173Z,3.35
2022-07-29T14:01:26.103Z,3.63
2022-07-29T14:04:13.443Z,3.55
2022-07-29T14:07:00.660Z,3.47
2022-07-29T14:09:51.713Z,3.30
2022-07-29T14:12:39.305Z,2.92
2022-07-29T14:15:26.581Z,2.78
2022-07-29T14:18:13.728Z,2.92
2022-07-29T14:21:01.383Z,2.85
2022-07-29T14:23:48.871Z,3.03
2022-07-29T14:26:36.687Z,3.00
2022-07-29T14:29:24.149Z,2.80
2022-07-29T14:32:24.971Z,2.92
2022-07-29T14:35:12.164Z,2.53
2022-07-29T14:38:00.172Z,2.80
2022-07-29T14:40:47.678Z,2.85
2022-07-29T14:43:38.106Z,2.90
2022-07-29T14:46:27.604Z,2.60
2022-07-29T14:49:14.771Z,2.42
2022-07-29T14:52:02.101Z,2.60
2022-07-29T14:54:49.303Z,2.50
2022-07-29T14:57:36.616Z,2.63
2022-07-29T15:00:23.948Z,2.50
2022-07-29T15:03:11.561Z,2.40
2022-07-29T15:05:58.983Z,2.22
2022-07-29T15:08:46.206Z,2.40
2022-07-29T15:11:38.250Z,2.47
2022-07-29T15:14:26.658Z,2.30
2022-07-29T15:17:13.875Z,2.45
2022-07-29T15:20:01.093Z,2.72
2022-07-29T15:22:48.229Z,2.60
2022-07-29T15:25:37.172Z,2.72
2022-07-29T15:28:24.375Z,2.78
2022-07-29T15:31:11.616Z,2.50
2022-07-29T15:34:02.399Z,2.67
2022-07-29T15:36:53.518Z,2.92
2022-07-29T15:39:41.323Z,2.70
2022-07-29T15:42:28.963Z,2.55
2022-07-29T15:45:16.174Z,3.15
2022-07-29T15:48:09.631Z,2.95
2022-07-29T15:50:56.865Z,2.85
2022-07-29T15:53:44.023Z,3.00
2022-07-29T15:56:41.023Z,2.95
2022-07-29T15:59:28.475Z,2.72
2022-07-29T16:02:15.674Z,2.90
2022-07-29T16:05:03.409Z,3.10
2022-07-29T16:07:50.580Z,2.75
2022-07-29T16:10:37.850Z,2.90
2022-07-29T16:13:25.026Z,2.60
2022-07-29T16:16:13.241Z,2.80
2022-07-29T16:19:00.410Z,3.00
2022-07-29T16:21:48.353Z,2.83
2022-07-29T16:24:35.532Z,2.60
2022-07-29T16:27:26.966Z,2.60
2022-07-29T16:30:23.180Z,2.30
2022-07-29T16:33:10.828Z,2.50
2022-07-29T16:35:57.982Z,2.45
2022-07-29T16:38:47.021Z,2.30
2022-07-29T16:41:34.918Z,2.72
2022-07-29T16:44:22.516Z,2.83
2022-07-29T16:47:12.432Z,2.80
2022-07-29T16:49:59.849Z,2.75
2022-07-29T16:52:47.335Z,2.78
2022-07-29T16:55:37.051Z,2.72
2022-07-29T16:58:24.825Z,2.90
2022-07-29T17:01:12.544Z,2.83
2022-07-29T17:04:09.221Z,2.67
2022-07-29T17:06:57.137Z,2.70
2022-07-29T17:09:44.524Z,2.95
2022-07-29T17:12:32.427Z,2.80
2022-07-29T17:15:19.594Z,3.13
2022-07-29T17:18:12.520Z,2.60
2022-07-29T17:21:00.276Z,2.85
2022-07-29T17:23:47.752Z,2.70
2022-07-29T17:26:34.990Z,2.70
2022-07-29T17:29:22.219Z,2.80
2022-07-29T17:32:10.353Z,2.55
2022-07-29T17:34:57.502Z,2.30
2022-07-29T17:37:44.667Z,2.75
2022-07-29T17:40:31.772Z,2.35
2022-07-29T17:43:18.877Z,2.60
2022-07-29T17:46:07.891Z,2.63
2022-07-29T17:48:56.385Z,2.78
2022-07-29T17:51:43.652Z,2.90
2022-07-29T17:54:30.854Z,2.50
2022-07-29T17:57:18.046Z,2.10
2022-07-29T18:00:08.242Z,2.00
2022-07-29T18:02:55.700Z,1.88
2022-07-29T18:05:43.438Z,1.67
2022-07-29T18:08:31.818Z,2.00
2022-07-29T18:11:19.132Z,2.00
2022-07-29T18:14:06.842Z,1.95
2022-07-29T18:16:54.034Z,2.10
2022-07-29T18:19:41.213Z,2.50
2022-07-29T18:22:28.427Z,2.42
2022-07-29T18:25:15.675Z,3.20
2022-07-29T18:28:03.101Z,3.28
2022-07-29T18:30:50.428Z,3.38
2022-07-29T18:33:39.479Z,3.10
2022-07-29T18:36:26.570Z,3.22
2022-07-29T18:39:20.526Z,2.97
2022-07-29T18:42:08.427Z,3.50
2022-07-29T18:44:55.637Z,3.30
2022-07-29T18:47:42.914Z,3.85
2022-07-29T18:50:35.918Z,3.05
2022-07-29T18:53:23.117Z,3.33
2022-07-29T18:56:10.326Z,3.20
2022-07-29T18:58:57.925Z,3.45
2022-07-29T19:01:45.582Z,3.40
2022-07-29T19:04:32.840Z,3.53
2022-07-29T19:07:21.756Z,3.30
2022-07-29T19:10:09.415Z,3.83
2022-07-29T19:12:57.754Z,3.30
2022-07-29T19:15:45.597Z,3.70
2022-07-29T19:18:32.910Z,3.60
2022-07-29T19:21:20.513Z,3.80
2022-07-29T19:24:12.331Z,3.60
2022-07-29T19:27:01.120Z,3.60
2022-07-29T19:29:48.465Z,3.92
2022-07-29T19:32:36.520Z,3.35
2022-07-29T19:35:32.821Z,3.40
2022-07-29T19:38:19.909Z,3.20
2022-07-29T19:41:07.158Z,3.10
2022-07-29T19:43:54.486Z,3.72
2022-07-29T19:46:41.774Z,3.00
2022-07-29T19:49:29.078Z,3.67
2022-07-29T19:52:16.257Z,3.30
2022-07-29T19:55:07.578Z,3.00
2022-07-29T19:57:55.630Z,3.13
2022-07-29T20:00:43.084Z,3.00
2022-07-29T20:03:30.833Z,2.95
2022-07-29T20:06:18.221Z,3.10
2022-07-29T20:09:06.166Z,3.35
2022-07-29T20:11:53.736Z,3.30
2022-07-29T20:14:41.042Z,3.10
2022-07-29T20:17:28.919Z,2.92
2022-07-29T20:20:16.158Z,3.10
2022-07-29T20:23:03.743Z,3.60
2022-07-29T20:25:50.978Z,3.47
2022-07-29T20:28:40.242Z,3.58
2022-07-29T20:31:27.733Z,3.25
2022-07-29T20:34:15.076Z,3.40
2022-07-29T20:37:02.771Z,3.20
2022-07-29T20:39:50.197Z,3.20
2022-07-29T20:42:37.462Z,3.17
2022-07-29T20:45:25.201Z,3.30
2022-07-29T20:48:13.839Z,3.13
2022-07-29T20:51:01.041Z,3.40
2022-07-29T20:53:49.082Z,3.00
2022-07-29T20:56:36.338Z,3.28
2022-07-29T20:59:23.513Z,3.50
2022-07-29T21:02:10.908Z,3.60
2022-07-29T21:04:58.054Z,3.50
2022-07-29T21:07:45.250Z,3.40
2022-07-29T21:10:32.389Z,3.38
2022-07-29T21:13:20.596Z,3.42
2022-07-29T21:16:19.465Z,3.88
2022-07-29T21:19:07.214Z,3.45
2022-07-29T21:21:54.382Z,3.30
2022-07-29T21:24:41.802Z,3.55
2022-07-29T21:27:47.460Z,3.15
2022-07-29T21:30:34.898Z,3.75
2022-07-29T21:33:22.553Z,3.70
2022-07-29T21:36:45.411Z,3.97
2022-07-29T21:39:18.384Z,3.70
2022-07-29T21:42:07.937Z,3.70
2022-07-29T21:44:55.086Z,3.42
2022-07-29T21:47:42.198Z,3.50
2022-07-29T21:50:29.347Z,3.42
2022-07-29T21:53:17.239Z,3.33
2022-07-29T21:56:12.404Z,3.38
2022-07-29T21:59:02.216Z,3.40
2022-07-29T22:01:49.508Z,3.67
2022-07-29T22:04:36.861Z,3.17
2022-07-29T22:07:24.178Z,3.63
2022-07-29T22:10:11.596Z,3.45
2022-07-29T22:13:00.421Z,3.40
2022-07-29T22:15:47.639Z,3.45
2022-07-29T22:18:34.806Z,3.53
2022-07-29T22:21:21.938Z,4.00
2022-07-29T22:24:10.365Z,3.72
2022-07-29T22:26:57.765Z,3.50
2022-07-29T22:29:45.196Z,3.65
2022-07-29T22:32:34.866Z,4.00
2022-07-29T22:35:22.020Z,3.60
2022-07-29T22:38:09.129Z,4.00
2022-07-29T22:41:01.341Z,3.65
2022-07-29T22:43:48.892Z,3.72
2022-07-29T22:46:36.365Z,3.67
2022-07-29T22:49:23.690Z,3.83
2022-07-29T22:52:10.845Z,3.88
2022-07-29T22:54:57.933Z,3.90
2022-07-29T22:57:45.066Z,3.67
2022-07-29T23:00:32.352Z,3.88
2022-07-29T23:03:20.060Z,3.38
2022-07-29T23:06:07.796Z,3.22
2022-07-29T23:08:54.954Z,3.30
2022-07-29T23:11:42.139Z,3.45
2022-07-29T23:14:29.346Z,3.78
2022-07-29T23:17:16.614Z,3.63
2022-07-29T23:20:08.843Z,4.13
2022-07-29T23:22:57.100Z,3.60
2022-07-29T23:25:44.579Z,3.35
2022-07-29T23:28:31.719Z,4.00
2022-07-29T23:31:18.942Z,4.00
2022-07-29T23:34:06.154Z,3.90
2022-07-29T23:36:53.296Z,3.67
2022-07-29T23:39:40.390Z,4.03
2022-07-29T23:42:27.521Z,4.20
2022-07-29T23:45:14.961Z,4.25
2022-07-29T23:48:02.050Z,4.32
2022-07-29T23:50:49.211Z,4.45
2022-07-29T23:53:39.599Z,4.13
2022-07-29T23:56:41.288Z,4.32
2022-07-29T23:59:28.468Z,3.90
